sensor_id;sensor_type;location;lat;lon;timestamp;temperature;humidity
52203;DHT22;38173;52.850;6.970;2023-03-14T00:00:06;9.50;99.90
52203;DHT22;38173;52.850;6.970;2023-03-14T00:02:33;9.50;99.90
52203;DHT22;38173;52.850;6.970;2023-03-14T00:04:59;9.60;99.90
52203;DHT22;38173;52.850;6.970;2023-03-14T00:07:28;9.70;99.90
52203;DHT22;38173;52.850;6.970;2023-03-14T00:10:07;9.80;99.90
52203;DHT22;38173;52.850;6.970;2023-03-14T00:12:33;9.80;99.90
52203;DHT22;38173;52.850;6.970;2023-03-14T00:14:59;9.80;99.90
52203;DHT22;38173;52.850;6.970;2023-03-14T00:17:32;10.00;99.90
52203;DHT22;38173;52.850;6.970;2023-03-14T00:20:00;10.00;99.90
52203;DHT22;38173;52.850;6.970;2023-03-14T00:22:36;10.00;99.90
52203;DHT22;38173;52.850;6.970;2023-03-14T00:25:03;10.10;99.90
52203;DHT22;38173;52.850;6.970;2023-03-14T00:27:29;10.10;99.90
52203;DHT22;38173;52.850;6.970;2023-03-14T00:29:55;10.20;99.90
52203;DHT22;38173;52.850;6.970;2023-03-14T00:32:20;10.10;99.90
52203;DHT22;38173;52.850;6.970;2023-03-14T00:34:47;10.20;99.90
52203;DHT22;38173;52.850;6.970;2023-03-14T00:37:13;10.10;99.90
52203;DHT22;38173;52.850;6.970;2023-03-14T00:39:39;10.00;99.90
52203;DHT22;38173;52.850;6.970;2023-03-14T00:42:05;9.90;99.90
52203;DHT22;38173;52.850;6.970;2023-03-14T00:44:30;9.80;99.90
52203;DHT22;38173;52.850;6.970;2023-03-14T00:46:58;9.70;99.90
52203;DHT22;38173;52.850;6.970;2023-03-14T00:49:24;9.60;99.90
52203;DHT22;38173;52.850;6.970;2023-03-14T00:51:49;9.60;99.90
52203;DHT22;38173;52.850;6.970;2023-03-14T00:54:17;9.60;99.90
52203;DHT22;38173;52.850;6.970;2023-03-14T00:56:42;9.60;99.90
52203;DHT22;38173;52.850;6.970;2023-03-14T00:59:08;9.50;99.90
52203;DHT22;38173;52.850;6.970;2023-03-14T01:01:34;9.50;99.90
52203;DHT22;38173;52.850;6.970;2023-03-14T01:03:59;9.50;99.90
52203;DHT22;38173;52.850;6.970;2023-03-14T01:06:26;9.50;99.90
52203;DHT22;38173;52.850;6.970;2023-03-14T01:08:53;9.50;99.90
52203;DHT22;38173;52.850;6.970;2023-03-14T01:11:40;9.50;99.90
52203;DHT22;38173;52.850;6.970;2023-03-14T01:14:05;9.50;99.90
52203;DHT22;38173;52.850;6.970;2023-03-14T01:16:32;9.50;99.90
52203;DHT22;38173;52.850;6.970;2023-03-14T01:18:58;9.50;99.90
52203;DHT22;38173;52.850;6.970;2023-03-14T01:21:28;9.50;99.90
52203;DHT22;38173;52.850;6.970;2023-03-14T01:23:55;9.50;99.90
52203;DHT22;38173;52.850;6.970;2023-03-14T01:26:22;9.40;99.90
52203;DHT22;38173;52.850;6.970;2023-03-14T01:29:07;9.30;99.90
52203;DHT22;38173;52.850;6.970;2023-03-14T01:31:38;9.20;99.90
52203;DHT22;38173;52.850;6.970;2023-03-14T01:34:05;9.20;99.90
52203;DHT22;38173;52.850;6.970;2023-03-14T01:36:31;9.10;99.90
52203;DHT22;38173;52.850;6.970;2023-03-14T01:38:57;9.00;99.90
52203;DHT22;38173;52.850;6.970;2023-03-14T01:41:24;9.00;99.90
52203;DHT22;38173;52.850;6.970;2023-03-14T01:43:52;8.90;99.90
52203;DHT22;38173;52.850;6.970;2023-03-14T01:46:51;9.00;99.90
52203;DHT22;38173;52.850;6.970;2023-03-14T01:51:44;8.90;99.90
52203;DHT22;38173;52.850;6.970;2023-03-14T01:56:57;8.90;99.90
52203;DHT22;38173;52.850;6.970;2023-03-14T01:59:26;8.90;99.90
52203;DHT22;38173;52.850;6.970;2023-03-14T02:01:52;8.80;99.90
52203;DHT22;38173;52.850;6.970;2023-03-14T02:04:21;8.80;99.90
52203;DHT22;38173;52.850;6.970;2023-03-14T02:06:50;8.80;99.90
52203;DHT22;38173;52.850;6.970;2023-03-14T02:09:16;8.80;99.90
52203;DHT22;38173;52.850;6.970;2023-03-14T02:11:43;8.70;99.90
52203;DHT22;38173;52.850;6.970;2023-03-14T02:14:13;8.70;99.90
52203;DHT22;38173;52.850;6.970;2023-03-14T02:16:44;8.70;99.90
52203;DHT22;38173;52.850;6.970;2023-03-14T02:19:18;8.80;99.90
52203;DHT22;38173;52.850;6.970;2023-03-14T02:21:55;8.80;99.90
52203;DHT22;38173;52.850;6.970;2023-03-14T02:27:09;8.90;99.90
52203;DHT22;38173;52.850;6.970;2023-03-14T02:29:36;8.90;99.90
52203;DHT22;38173;52.850;6.970;2023-03-14T02:32:04;9.00;99.90
52203;DHT22;38173;52.850;6.970;2023-03-14T02:34:30;9.00;99.90
52203;DHT22;38173;52.850;6.970;2023-03-14T02:36:59;9.00;99.90
52203;DHT22;38173;52.850;6.970;2023-03-14T02:39:28;9.10;99.90
52203;DHT22;38173;52.850;6.970;2023-03-14T02:41:59;9.10;99.90
52203;DHT22;38173;52.850;6.970;2023-03-14T02:44:25;9.10;99.90
52203;DHT22;38173;52.850;6.970;2023-03-14T02:46:51;9.10;99.90
52203;DHT22;38173;52.850;6.970;2023-03-14T02:49:16;9.10;99.90
52203;DHT22;38173;52.850;6.970;2023-03-14T02:51:43;9.10;99.90
52203;DHT22;38173;52.850;6.970;2023-03-14T02:54:09;9.10;99.90
52203;DHT22;38173;52.850;6.970;2023-03-14T02:56:34;9.10;99.90
52203;DHT22;38173;52.850;6.970;2023-03-14T02:59:03;9.10;99.90
52203;DHT22;38173;52.850;6.970;2023-03-14T03:01:32;9.10;99.90
52203;DHT22;38173;52.850;6.970;2023-03-14T03:03:58;9.10;99.90
52203;DHT22;38173;52.850;6.970;2023-03-14T03:06:23;9.10;99.90
52203;DHT22;38173;52.850;6.970;2023-03-14T03:08:49;9.10;99.90
52203;DHT22;38173;52.850;6.970;2023-03-14T03:11:15;9.10;99.90
52203;DHT22;38173;52.850;6.970;2023-03-14T03:13:40;9.10;99.90
52203;DHT22;38173;52.850;6.970;2023-03-14T03:16:09;9.10;99.90
52203;DHT22;38173;52.850;6.970;2023-03-14T03:18:35;9.10;99.90
52203;DHT22;38173;52.850;6.970;2023-03-14T03:23:29;9.10;99.90
52203;DHT22;38173;52.850;6.970;2023-03-14T03:25:55;8.90;99.90
52203;DHT22;38173;52.850;6.970;2023-03-14T03:28:21;8.90;99.90
52203;DHT22;38173;52.850;6.970;2023-03-14T03:30:46;8.80;99.90
52203;DHT22;38173;52.850;6.970;2023-03-14T03:33:13;8.80;99.90
52203;DHT22;38173;52.850;6.970;2023-03-14T03:35:43;8.80;99.90
52203;DHT22;38173;52.850;6.970;2023-03-14T03:38:09;8.70;99.90
52203;DHT22;38173;52.850;6.970;2023-03-14T03:40:34;8.70;99.90
52203;DHT22;38173;52.850;6.970;2023-03-14T03:43:00;8.70;99.90
52203;DHT22;38173;52.850;6.970;2023-03-14T03:45:27;8.70;99.90
52203;DHT22;38173;52.850;6.970;2023-03-14T03:47:52;8.70;99.90
52203;DHT22;38173;52.850;6.970;2023-03-14T03:50:18;8.70;99.90
52203;DHT22;38173;52.850;6.970;2023-03-14T03:52:44;8.70;99.90
52203;DHT22;38173;52.850;6.970;2023-03-14T03:55:10;8.70;99.90
52203;DHT22;38173;52.850;6.970;2023-03-14T03:57:35;8.70;99.90
52203;DHT22;38173;52.850;6.970;2023-03-14T04:00:01;8.70;99.90
52203;DHT22;38173;52.850;6.970;2023-03-14T04:02:27;8.70;99.90
52203;DHT22;38173;52.850;6.970;2023-03-14T04:04:52;8.70;99.90
52203;DHT22;38173;52.850;6.970;2023-03-14T04:07:18;8.70;99.90
52203;DHT22;38173;52.850;6.970;2023-03-14T04:09:44;8.70;99.90
52203;DHT22;38173;52.850;6.970;2023-03-14T04:12:10;8.70;99.90
52203;DHT22;38173;52.850;6.970;2023-03-14T04:14:36;8.60;99.90
52203;DHT22;38173;52.850;6.970;2023-03-14T04:17:02;8.60;99.90
52203;DHT22;38173;52.850;6.970;2023-03-14T04:19:27;8.60;99.90
52203;DHT22;38173;52.850;6.970;2023-03-14T04:21:53;8.60;99.90
52203;DHT22;38173;52.850;6.970;2023-03-14T04:24:20;8.60;99.90
52203;DHT22;38173;52.850;6.970;2023-03-14T04:26:46;8.60;99.90
52203;DHT22;38173;52.850;6.970;2023-03-14T04:29:11;8.60;99.90
52203;DHT22;38173;52.850;6.970;2023-03-14T04:31:37;8.60;99.90
52203;DHT22;38173;52.850;6.970;2023-03-14T04:34:03;8.60;99.90
52203;DHT22;38173;52.850;6.970;2023-03-14T04:36:28;8.60;99.90
52203;DHT22;38173;52.850;6.970;2023-03-14T04:38:54;8.60;99.90
52203;DHT22;38173;52.850;6.970;2023-03-14T04:41:20;8.60;99.90
52203;DHT22;38173;52.850;6.970;2023-03-14T04:43:45;8.60;99.90
52203;DHT22;38173;52.850;6.970;2023-03-14T04:46:11;8.60;99.90
52203;DHT22;38173;52.850;6.970;2023-03-14T04:48:37;8.60;99.90
52203;DHT22;38173;52.850;6.970;2023-03-14T04:51:03;8.60;99.90
52203;DHT22;38173;52.850;6.970;2023-03-14T04:53:29;8.60;99.90
52203;DHT22;38173;52.850;6.970;2023-03-14T04:55:55;8.50;99.90
52203;DHT22;38173;52.850;6.970;2023-03-14T04:58:21;8.60;99.90
52203;DHT22;38173;52.850;6.970;2023-03-14T05:00:47;8.50;99.90
52203;DHT22;38173;52.850;6.970;2023-03-14T05:03:14;8.60;99.90
52203;DHT22;38173;52.850;6.970;2023-03-14T05:05:39;8.60;99.90
52203;DHT22;38173;52.850;6.970;2023-03-14T05:08:05;8.60;99.90
52203;DHT22;38173;52.850;6.970;2023-03-14T05:10:31;8.60;99.90
52203;DHT22;38173;52.850;6.970;2023-03-14T05:12:57;8.60;99.90
52203;DHT22;38173;52.850;6.970;2023-03-14T05:15:23;8.50;99.90
52203;DHT22;38173;52.850;6.970;2023-03-14T05:17:48;8.50;99.90
52203;DHT22;38173;52.850;6.970;2023-03-14T05:20:14;8.50;99.90
52203;DHT22;38173;52.850;6.970;2023-03-14T05:22:40;8.50;99.90
52203;DHT22;38173;52.850;6.970;2023-03-14T05:25:09;8.50;99.90
52203;DHT22;38173;52.850;6.970;2023-03-14T05:27:35;8.50;99.90
52203;DHT22;38173;52.850;6.970;2023-03-14T05:30:01;8.40;99.90
52203;DHT22;38173;52.850;6.970;2023-03-14T05:32:27;8.40;99.90
52203;DHT22;38173;52.850;6.970;2023-03-14T05:34:53;8.30;99.90
52203;DHT22;38173;52.850;6.970;2023-03-14T05:37:23;8.30;99.90
52203;DHT22;38173;52.850;6.970;2023-03-14T05:39:49;8.30;99.90
52203;DHT22;38173;52.850;6.970;2023-03-14T05:42:14;8.30;99.90
52203;DHT22;38173;52.850;6.970;2023-03-14T05:44:40;8.30;99.90
52203;DHT22;38173;52.850;6.970;2023-03-14T05:47:05;8.30;99.90
52203;DHT22;38173;52.850;6.970;2023-03-14T05:49:31;8.40;99.90
52203;DHT22;38173;52.850;6.970;2023-03-14T05:51:57;8.40;99.90
52203;DHT22;38173;52.850;6.970;2023-03-14T05:54:23;8.40;99.90
52203;DHT22;38173;52.850;6.970;2023-03-14T05:56:49;8.40;99.90
52203;DHT22;38173;52.850;6.970;2023-03-14T05:59:15;8.50;99.90
52203;DHT22;38173;52.850;6.970;2023-03-14T06:01:43;8.50;99.90
52203;DHT22;38173;52.850;6.970;2023-03-14T06:04:09;8.50;99.90
52203;DHT22;38173;52.850;6.970;2023-03-14T06:06:38;8.50;99.90
52203;DHT22;38173;52.850;6.970;2023-03-14T06:09:03;8.50;99.90
52203;DHT22;38173;52.850;6.970;2023-03-14T06:11:29;8.50;99.90
52203;DHT22;38173;52.850;6.970;2023-03-14T06:13:56;8.50;99.90
52203;DHT22;38173;52.850;6.970;2023-03-14T06:16:22;8.50;99.90
52203;DHT22;38173;52.850;6.970;2023-03-14T06:18:54;8.50;99.90
52203;DHT22;38173;52.850;6.970;2023-03-14T06:21:20;8.50;99.90
52203;DHT22;38173;52.850;6.970;2023-03-14T06:23:46;8.50;99.90
52203;DHT22;38173;52.850;6.970;2023-03-14T06:26:12;8.50;99.90
52203;DHT22;38173;52.850;6.970;2023-03-14T06:28:38;8.50;99.90
52203;DHT22;38173;52.850;6.970;2023-03-14T06:31:07;8.50;99.90
52203;DHT22;38173;52.850;6.970;2023-03-14T06:33:34;8.50;99.90
52203;DHT22;38173;52.850;6.970;2023-03-14T06:35:59;8.50;99.90
52203;DHT22;38173;52.850;6.970;2023-03-14T06:38:31;8.50;99.90
52203;DHT22;38173;52.850;6.970;2023-03-14T06:41:02;8.40;99.90
52203;DHT22;38173;52.850;6.970;2023-03-14T06:43:28;8.50;99.90
52203;DHT22;38173;52.850;6.970;2023-03-14T06:45:53;8.50;99.90
52203;DHT22;38173;52.850;6.970;2023-03-14T06:48:19;8.50;99.90
52203;DHT22;38173;52.850;6.970;2023-03-14T06:50:47;8.50;99.90
52203;DHT22;38173;52.850;6.970;2023-03-14T06:53:15;8.60;99.90
52203;DHT22;38173;52.850;6.970;2023-03-14T06:55:41;8.60;99.90
52203;DHT22;38173;52.850;6.970;2023-03-14T06:58:08;8.60;99.90
52203;DHT22;38173;52.850;6.970;2023-03-14T07:00:35;8.60;99.90
52203;DHT22;38173;52.850;6.970;2023-03-14T07:03:05;8.60;99.90
52203;DHT22;38173;52.850;6.970;2023-03-14T07:05:32;8.60;99.90
52203;DHT22;38173;52.850;6.970;2023-03-14T07:07:58;8.60;99.90
52203;DHT22;38173;52.850;6.970;2023-03-14T07:10:25;8.70;99.90
52203;DHT22;38173;52.850;6.970;2023-03-14T07:12:50;8.70;99.90
52203;DHT22;38173;52.850;6.970;2023-03-14T07:15:19;8.70;99.90
52203;DHT22;38173;52.850;6.970;2023-03-14T07:17:45;8.80;99.90
52203;DHT22;38173;52.850;6.970;2023-03-14T07:20:13;8.80;99.90
52203;DHT22;38173;52.850;6.970;2023-03-14T07:22:39;8.80;99.90
52203;DHT22;38173;52.850;6.970;2023-03-14T07:25:04;8.90;99.90
52203;DHT22;38173;52.850;6.970;2023-03-14T07:27:30;8.90;99.90
52203;DHT22;38173;52.850;6.970;2023-03-14T07:29:56;8.80;99.90
52203;DHT22;38173;52.850;6.970;2023-03-14T07:32:22;8.80;99.90
52203;DHT22;38173;52.850;6.970;2023-03-14T07:34:48;8.80;99.90
52203;DHT22;38173;52.850;6.970;2023-03-14T07:37:14;8.80;99.90
52203;DHT22;38173;52.850;6.970;2023-03-14T07:39:39;8.80;99.90
52203;DHT22;38173;52.850;6.970;2023-03-14T07:42:05;8.80;99.90
52203;DHT22;38173;52.850;6.970;2023-03-14T07:44:31;8.70;99.90
52203;DHT22;38173;52.850;6.970;2023-03-14T07:46:56;8.70;99.90
52203;DHT22;38173;52.850;6.970;2023-03-14T07:49:22;8.60;99.90
52203;DHT22;38173;52.850;6.970;2023-03-14T07:51:49;8.40;99.90
52203;DHT22;38173;52.850;6.970;2023-03-14T07:54:15;8.00;99.90
52203;DHT22;38173;52.850;6.970;2023-03-14T07:56:41;7.60;99.90
52203;DHT22;38173;52.850;6.970;2023-03-14T07:59:07;7.40;99.90
52203;DHT22;38173;52.850;6.970;2023-03-14T08:01:33;7.10;99.90
52203;DHT22;38173;52.850;6.970;2023-03-14T08:03:59;6.70;99.90
52203;DHT22;38173;52.850;6.970;2023-03-14T08:06:25;6.50;99.90
52203;DHT22;38173;52.850;6.970;2023-03-14T08:08:51;6.20;99.90
52203;DHT22;38173;52.850;6.970;2023-03-14T08:11:17;6.00;99.90
52203;DHT22;38173;52.850;6.970;2023-03-14T08:13:43;5.80;99.90
52203;DHT22;38173;52.850;6.970;2023-03-14T08:16:15;5.60;99.90
52203;DHT22;38173;52.850;6.970;2023-03-14T08:18:41;5.50;99.90
52203;DHT22;38173;52.850;6.970;2023-03-14T08:21:07;5.30;99.90
52203;DHT22;38173;52.850;6.970;2023-03-14T08:23:32;5.00;99.90
52203;DHT22;38173;52.850;6.970;2023-03-14T08:25:58;5.00;99.90
52203;DHT22;38173;52.850;6.970;2023-03-14T08:28:23;4.90;99.90
52203;DHT22;38173;52.850;6.970;2023-03-14T08:30:50;4.70;99.90
52203;DHT22;38173;52.850;6.970;2023-03-14T08:33:16;4.70;99.90
52203;DHT22;38173;52.850;6.970;2023-03-14T08:35:42;4.50;99.90
52203;DHT22;38173;52.850;6.970;2023-03-14T08:38:08;4.40;99.90
52203;DHT22;38173;52.850;6.970;2023-03-14T08:40:34;4.30;99.90
52203;DHT22;38173;52.850;6.970;2023-03-14T08:43:00;4.20;99.90
52203;DHT22;38173;52.850;6.970;2023-03-14T08:45:25;4.20;99.90
52203;DHT22;38173;52.850;6.970;2023-03-14T08:47:51;4.20;99.90
52203;DHT22;38173;52.850;6.970;2023-03-14T08:50:16;4.20;99.90
52203;DHT22;38173;52.850;6.970;2023-03-14T08:52:42;4.10;99.90
52203;DHT22;38173;52.850;6.970;2023-03-14T08:55:08;4.10;99.90
52203;DHT22;38173;52.850;6.970;2023-03-14T08:57:34;4.20;99.90
52203;DHT22;38173;52.850;6.970;2023-03-14T09:00:00;4.20;99.90
52203;DHT22;38173;52.850;6.970;2023-03-14T09:02:25;4.20;99.90
52203;DHT22;38173;52.850;6.970;2023-03-14T09:04:51;4.20;99.90
52203;DHT22;38173;52.850;6.970;2023-03-14T09:07:17;4.20;99.90
52203;DHT22;38173;52.850;6.970;2023-03-14T09:09:43;4.20;99.90
52203;DHT22;38173;52.850;6.970;2023-03-14T09:12:09;4.30;99.90
52203;DHT22;38173;52.850;6.970;2023-03-14T09:14:35;4.30;99.90
52203;DHT22;38173;52.850;6.970;2023-03-14T09:17:03;4.30;99.90
52203;DHT22;38173;52.850;6.970;2023-03-14T09:19:29;4.30;99.90
52203;DHT22;38173;52.850;6.970;2023-03-14T09:21:55;4.30;99.90
52203;DHT22;38173;52.850;6.970;2023-03-14T09:24:21;4.30;99.90
52203;DHT22;38173;52.850;6.970;2023-03-14T09:26:46;4.30;99.90
52203;DHT22;38173;52.850;6.970;2023-03-14T09:29:12;4.30;99.90
52203;DHT22;38173;52.850;6.970;2023-03-14T09:31:38;4.40;99.90
52203;DHT22;38173;52.850;6.970;2023-03-14T09:34:03;4.40;99.90
52203;DHT22;38173;52.850;6.970;2023-03-14T09:36:29;4.50;99.90
52203;DHT22;38173;52.850;6.970;2023-03-14T09:38:55;4.50;99.90
52203;DHT22;38173;52.850;6.970;2023-03-14T09:41:21;4.50;99.90
52203;DHT22;38173;52.850;6.970;2023-03-14T09:43:48;4.60;99.90
52203;DHT22;38173;52.850;6.970;2023-03-14T09:46:16;4.60;99.90
52203;DHT22;38173;52.850;6.970;2023-03-14T09:48:42;4.70;99.90
52203;DHT22;38173;52.850;6.970;2023-03-14T09:51:15;4.70;99.90
52203;DHT22;38173;52.850;6.970;2023-03-14T09:53:43;4.80;99.90
52203;DHT22;38173;52.850;6.970;2023-03-14T09:56:14;4.90;99.90
52203;DHT22;38173;52.850;6.970;2023-03-14T09:58:42;4.90;99.90
52203;DHT22;38173;52.850;6.970;2023-03-14T10:01:10;4.80;99.90
52203;DHT22;38173;52.850;6.970;2023-03-14T10:03:36;4.80;99.90
52203;DHT22;38173;52.850;6.970;2023-03-14T10:06:02;4.80;99.90
52203;DHT22;38173;52.850;6.970;2023-03-14T10:08:34;5.00;99.90
52203;DHT22;38173;52.850;6.970;2023-03-14T10:11:00;5.10;99.90
52203;DHT22;38173;52.850;6.970;2023-03-14T10:13:27;5.30;99.90
52203;DHT22;38173;52.850;6.970;2023-03-14T10:15:54;5.50;99.90
52203;DHT22;38173;52.850;6.970;2023-03-14T10:18:22;5.70;99.90
52203;DHT22;38173;52.850;6.970;2023-03-14T10:20:49;5.80;99.90
52203;DHT22;38173;52.850;6.970;2023-03-14T10:23:27;5.80;99.90
52203;DHT22;38173;52.850;6.970;2023-03-14T10:26:03;5.90;99.90
52203;DHT22;38173;52.850;6.970;2023-03-14T10:28:31;5.80;99.90
52203;DHT22;38173;52.850;6.970;2023-03-14T10:30:58;5.80;99.90
52203;DHT22;38173;52.850;6.970;2023-03-14T10:33:32;5.80;99.90
52203;DHT22;38173;52.850;6.970;2023-03-14T10:38:28;5.90;99.90
52203;DHT22;38173;52.850;6.970;2023-03-14T10:40:54;6.00;99.90
52203;DHT22;38173;52.850;6.970;2023-03-14T10:43:24;6.00;99.90
52203;DHT22;38173;52.850;6.970;2023-03-14T10:45:56;6.00;99.90
52203;DHT22;38173;52.850;6.970;2023-03-14T10:51:03;6.00;99.90
52203;DHT22;38173;52.850;6.970;2023-03-14T10:54:12;6.10;99.90
52203;DHT22;38173;52.850;6.970;2023-03-14T10:56:22;6.00;99.90
52203;DHT22;38173;52.850;6.970;2023-03-14T10:58:52;6.00;99.90
52203;DHT22;38173;52.850;6.970;2023-03-14T11:01:26;6.10;99.90
52203;DHT22;38173;52.850;6.970;2023-03-14T11:04:00;6.00;99.90
52203;DHT22;38173;52.850;6.970;2023-03-14T11:06:32;6.10;99.90
52203;DHT22;38173;52.850;6.970;2023-03-14T11:09:02;6.20;99.90
52203;DHT22;38173;52.850;6.970;2023-03-14T11:11:31;6.20;99.90
52203;DHT22;38173;52.850;6.970;2023-03-14T11:16:45;6.40;99.90
52203;DHT22;38173;52.850;6.970;2023-03-14T11:19:20;6.40;99.90
52203;DHT22;38173;52.850;6.970;2023-03-14T11:24:27;6.50;99.90
52203;DHT22;38173;52.850;6.970;2023-03-14T11:29:34;6.60;99.90
52203;DHT22;38173;52.850;6.970;2023-03-14T11:32:03;6.50;99.90
52203;DHT22;38173;52.850;6.970;2023-03-14T11:34:37;6.60;99.90
52203;DHT22;38173;52.850;6.970;2023-03-14T11:37:12;6.60;99.90
52203;DHT22;38173;52.850;6.970;2023-03-14T11:39:40;6.70;99.90
52203;DHT22;38173;52.850;6.970;2023-03-14T11:42:09;6.70;99.90
52203;DHT22;38173;52.850;6.970;2023-03-14T11:44:37;6.70;99.90
52203;DHT22;38173;52.850;6.970;2023-03-14T11:47:17;6.70;99.90
52203;DHT22;38173;52.850;6.970;2023-03-14T11:52:41;6.80;99.90
52203;DHT22;38173;52.850;6.970;2023-03-14T11:55:12;6.70;99.90
52203;DHT22;38173;52.850;6.970;2023-03-14T11:57:40;6.70;99.90
52203;DHT22;38173;52.850;6.970;2023-03-14T12:00:19;6.80;99.90
52203;DHT22;38173;52.850;6.970;2023-03-14T12:10:42;7.10;99.90
52203;DHT22;38173;52.850;6.970;2023-03-14T12:13:09;7.20;99.90
52203;DHT22;38173;52.850;6.970;2023-03-14T12:15:38;7.30;99.90
52203;DHT22;38173;52.850;6.970;2023-03-14T12:18:11;7.20;99.90
52203;DHT22;38173;52.850;6.970;2023-03-14T12:20:42;7.10;99.90
52203;DHT22;38173;52.850;6.970;2023-03-14T12:23:16;7.00;99.90
52203;DHT22;38173;52.850;6.970;2023-03-14T12:25:44;7.10;99.90
52203;DHT22;38173;52.850;6.970;2023-03-14T12:28:17;7.10;99.90
52203;DHT22;38173;52.850;6.970;2023-03-14T12:30:45;7.00;99.90
52203;DHT22;38173;52.850;6.970;2023-03-14T12:35:44;7.10;99.90
52203;DHT22;38173;52.850;6.970;2023-03-14T12:38:12;7.30;99.90
52203;DHT22;38173;52.850;6.970;2023-03-14T12:40:39;7.40;99.90
52203;DHT22;38173;52.850;6.970;2023-03-14T12:46:08;7.50;99.90
52203;DHT22;38173;52.850;6.970;2023-03-14T12:48:34;7.60;99.90
52203;DHT22;38173;52.850;6.970;2023-03-14T12:51:03;7.70;99.90
52203;DHT22;38173;52.850;6.970;2023-03-14T12:58:57;7.50;99.90
52203;DHT22;38173;52.850;6.970;2023-03-14T13:01:26;7.60;99.90
52203;DHT22;38173;52.850;6.970;2023-03-14T13:04:02;7.80;99.90
52203;DHT22;38173;52.850;6.970;2023-03-14T13:11:52;7.60;99.90
52203;DHT22;38173;52.850;6.970;2023-03-14T13:14:18;7.60;99.90
52203;DHT22;38173;52.850;6.970;2023-03-14T13:16:44;7.60;99.90
52203;DHT22;38173;52.850;6.970;2023-03-14T13:19:15;7.50;99.90
52203;DHT22;38173;52.850;6.970;2023-03-14T13:21:42;7.50;99.90
52203;DHT22;38173;52.850;6.970;2023-03-14T13:24:22;7.40;99.90
52203;DHT22;38173;52.850;6.970;2023-03-14T13:26:48;7.20;99.90
52203;DHT22;38173;52.850;6.970;2023-03-14T13:29:20;7.30;99.90
52203;DHT22;38173;52.850;6.970;2023-03-14T13:31:47;7.70;99.90
52203;DHT22;38173;52.850;6.970;2023-03-14T13:34:14;8.20;99.90
52203;DHT22;38173;52.850;6.970;2023-03-14T13:36:39;8.60;99.90
52203;DHT22;38173;52.850;6.970;2023-03-14T13:39:18;8.60;99.90
52203;DHT22;38173;52.850;6.970;2023-03-14T13:41:45;8.60;99.90
52203;DHT22;38173;52.850;6.970;2023-03-14T13:44:19;8.50;99.90
52203;DHT22;38173;52.850;6.970;2023-03-14T13:46:48;8.30;99.90
52203;DHT22;38173;52.850;6.970;2023-03-14T13:49:17;8.20;99.90
52203;DHT22;38173;52.850;6.970;2023-03-14T13:51:45;8.00;99.90
52203;DHT22;38173;52.850;6.970;2023-03-14T13:54:18;7.80;99.90
52203;DHT22;38173;52.850;6.970;2023-03-14T13:56:44;7.70;99.90
52203;DHT22;38173;52.850;6.970;2023-03-14T14:01:47;7.30;99.90
52203;DHT22;38173;52.850;6.970;2023-03-14T14:04:17;7.20;99.90
52203;DHT22;38173;52.850;6.970;2023-03-14T14:06:45;7.20;99.90
52203;DHT22;38173;52.850;6.970;2023-03-14T14:09:13;7.10;99.90
52203;DHT22;38173;52.850;6.970;2023-03-14T14:11:47;7.10;99.90
52203;DHT22;38173;52.850;6.970;2023-03-14T14:14:28;7.10;99.90
52203;DHT22;38173;52.850;6.970;2023-03-14T14:16:54;7.20;99.90
52203;DHT22;38173;52.850;6.970;2023-03-14T14:19:22;7.40;99.90
52203;DHT22;38173;52.850;6.970;2023-03-14T14:21:49;7.80;99.90
52203;DHT22;38173;52.850;6.970;2023-03-14T14:24:15;8.60;99.90
52203;DHT22;38173;52.850;6.970;2023-03-14T14:26:46;9.60;99.90
52203;DHT22;38173;52.850;6.970;2023-03-14T14:29:21;10.60;94.40
52203;DHT22;38173;52.850;6.970;2023-03-14T14:31:58;10.90;93.80
52203;DHT22;38173;52.850;6.970;2023-03-14T14:34:24;10.40;87.80
52203;DHT22;38173;52.850;6.970;2023-03-14T14:36:52;10.10;96.20
52203;DHT22;38173;52.850;6.970;2023-03-14T14:39:19;10.00;86.80
52203;DHT22;38173;52.850;6.970;2023-03-14T14:41:47;9.90;92.20
52203;DHT22;38173;52.850;6.970;2023-03-14T14:44:13;9.90;94.80
52203;DHT22;38173;52.850;6.970;2023-03-14T14:46:41;10.00;99.20
52203;DHT22;38173;52.850;6.970;2023-03-14T14:49:12;9.70;94.50
52203;DHT22;38173;52.850;6.970;2023-03-14T14:51:44;9.00;98.90
52203;DHT22;38173;52.850;6.970;2023-03-14T14:54:14;8.40;99.90
52203;DHT22;38173;52.850;6.970;2023-03-14T14:56:40;8.60;99.30
52203;DHT22;38173;52.850;6.970;2023-03-14T14:59:18;8.70;99.90
52203;DHT22;38173;52.850;6.970;2023-03-14T15:01:45;8.50;99.60
52203;DHT22;38173;52.850;6.970;2023-03-14T15:04:13;8.20;99.50
52203;DHT22;38173;52.850;6.970;2023-03-14T15:06:43;8.30;99.60
52203;DHT22;38173;52.850;6.970;2023-03-14T15:09:12;8.70;99.70
52203;DHT22;38173;52.850;6.970;2023-03-14T15:11:38;8.90;96.80
52203;DHT22;38173;52.850;6.970;2023-03-14T15:14:04;8.60;97.70
52203;DHT22;38173;52.850;6.970;2023-03-14T15:16:30;7.90;96.90
52203;DHT22;38173;52.850;6.970;2023-03-14T15:18:57;7.40;97.30
52203;DHT22;38173;52.850;6.970;2023-03-14T15:21:24;7.10;97.60
52203;DHT22;38173;52.850;6.970;2023-03-14T15:23:50;6.90;95.90
52203;DHT22;38173;52.850;6.970;2023-03-14T15:26:17;6.80;97.30
52203;DHT22;38173;52.850;6.970;2023-03-14T15:28:43;6.90;97.90
52203;DHT22;38173;52.850;6.970;2023-03-14T15:31:09;6.90;98.50
52203;DHT22;38173;52.850;6.970;2023-03-14T15:33:36;6.90;97.90
52203;DHT22;38173;52.850;6.970;2023-03-14T15:36:02;6.90;98.20
52203;DHT22;38173;52.850;6.970;2023-03-14T15:38:28;6.80;98.80
52203;DHT22;38173;52.850;6.970;2023-03-14T15:40:54;6.60;98.50
52203;DHT22;38173;52.850;6.970;2023-03-14T15:43:20;6.40;99.90
52203;DHT22;38173;52.850;6.970;2023-03-14T15:45:45;6.30;99.60
52203;DHT22;38173;52.850;6.970;2023-03-14T15:48:15;6.10;99.90
52203;DHT22;38173;52.850;6.970;2023-03-14T15:50:41;6.00;99.90
52203;DHT22;38173;52.850;6.970;2023-03-14T15:53:07;6.00;99.90
52203;DHT22;38173;52.850;6.970;2023-03-14T15:55:33;6.00;99.90
52203;DHT22;38173;52.850;6.970;2023-03-14T15:57:59;6.50;99.90
52203;DHT22;38173;52.850;6.970;2023-03-14T16:00:25;7.30;99.90
52203;DHT22;38173;52.850;6.970;2023-03-14T16:02:51;8.10;99.90
52203;DHT22;38173;52.850;6.970;2023-03-14T16:05:18;9.10;99.90
52203;DHT22;38173;52.850;6.970;2023-03-14T16:07:47;10.00;98.00
52203;DHT22;38173;52.850;6.970;2023-03-14T16:10:13;10.80;95.90
52203;DHT22;38173;52.850;6.970;2023-03-14T16:12:39;11.00;97.10
52203;DHT22;38173;52.850;6.970;2023-03-14T16:15:05;10.80;91.20
52203;DHT22;38173;52.850;6.970;2023-03-14T16:17:31;9.50;95.30
52203;DHT22;38173;52.850;6.970;2023-03-14T16:19:57;8.70;96.20
52203;DHT22;38173;52.850;6.970;2023-03-14T16:22:23;8.50;97.30
52203;DHT22;38173;52.850;6.970;2023-03-14T16:24:49;8.40;93.20
52203;DHT22;38173;52.850;6.970;2023-03-14T16:27:14;8.00;95.90
52203;DHT22;38173;52.850;6.970;2023-03-14T16:29:41;7.50;98.10
52203;DHT22;38173;52.850;6.970;2023-03-14T16:32:06;7.00;97.20
52203;DHT22;38173;52.850;6.970;2023-03-14T16:34:32;6.90;99.90
52203;DHT22;38173;52.850;6.970;2023-03-14T16:36:58;6.80;95.50
52203;DHT22;38173;52.850;6.970;2023-03-14T16:39:23;6.60;95.70